createdAt,value
2019-02-02T00:02:07.617Z,23.97
2019-02-02T00:04:35.200Z,20.17
2019-02-02T00:07:02.943Z,21.23
2019-02-02T00:09:30.589Z,23.80
2019-02-02T00:11:58.192Z,24.87
2019-02-02T00:14:25.898Z,22.67
2019-02-02T00:16:53.692Z,24.43
2019-02-02T00:19:21.489Z,25.60
2019-02-02T00:21:49.669Z,20.27
2019-02-02T00:24:17.275Z,23.60
2019-02-02T00:26:45.168Z,20.27
2019-02-02T00:29:12.749Z,20.23
2019-02-02T00:31:40.429Z,22.00
2019-02-02T00:34:07.932Z,20.53
2019-02-02T00:36:36.436Z,18.67
2019-02-02T00:39:08.513Z,20.00
2019-02-02T00:41:37.529Z,20.97
2019-02-02T00:44:05.720Z,18.13
2019-02-02T00:46:33.369Z,21.00
2019-02-02T00:49:01.044Z,19.80
2019-02-02T00:51:28.684Z,22.40
2019-02-02T00:53:56.300Z,23.53
2019-02-02T00:56:23.996Z,20.33
2019-02-02T00:58:51.624Z,19.20
2019-02-02T01:01:19.254Z,22.10
2019-02-02T01:03:48.154Z,23.37
2019-02-02T01:06:15.680Z,22.60
2019-02-02T01:08:43.361Z,21.00
2019-02-02T01:11:11.050Z,20.80
2019-02-02T01:13:38.667Z,22.53
2019-02-02T01:16:06.348Z,25.57
2019-02-02T01:18:33.964Z,23.83
2019-02-02T01:21:01.665Z,22.80
2019-02-02T01:23:29.414Z,20.63
2019-02-02T01:25:57.117Z,25.67
2019-02-02T01:28:24.919Z,22.37
2019-02-02T01:30:52.539Z,20.43
2019-02-02T01:33:20.130Z,23.90
2019-02-02T01:35:47.869Z,22.33
2019-02-02T01:38:15.461Z,22.53
2019-02-02T01:40:43.081Z,25.33
2019-02-02T01:43:10.703Z,21.50
2019-02-02T01:45:38.653Z,21.27
2019-02-02T01:48:06.281Z,20.27
2019-02-02T01:50:33.891Z,23.57
2019-02-02T01:53:01.567Z,21.20
2019-02-02T01:55:29.168Z,22.63
2019-02-02T01:57:56.952Z,21.73
2019-02-02T02:00:26.856Z,19.77
2019-02-02T02:02:54.610Z,21.53
2019-02-02T02:05:22.491Z,20.83
2019-02-02T02:07:50.092Z,21.20
2019-02-02T02:10:17.872Z,20.87
2019-02-02T02:12:45.572Z,21.53
2019-02-02T02:15:14.444Z,20.80
2019-02-02T02:17:42.562Z,22.10
2019-02-02T02:20:10.843Z,21.53
2019-02-02T02:22:41.053Z,19.93
2019-02-02T02:25:12.927Z,20.30
2019-02-02T02:27:40.595Z,23.73
2019-02-02T02:30:11.002Z,22.63
2019-02-02T02:32:38.592Z,21.57
2019-02-02T02:35:06.382Z,23.97
2019-02-02T02:37:34.004Z,26.97
2019-02-02T02:40:01.816Z,30.53
2019-02-02T02:42:29.499Z,29.63
2019-02-02T02:44:57.344Z,26.33
2019-02-02T02:47:25.037Z,28.53
2019-02-02T02:49:52.667Z,30.43
2019-02-02T02:52:20.247Z,29.77
2019-02-02T02:54:47.877Z,29.57
2019-02-02T02:57:15.480Z,30.13
2019-02-02T02:59:43.075Z,32.10
2019-02-02T03:02:10.730Z,31.83
2019-02-02T03:04:38.314Z,32.33
2019-02-02T03:07:05.950Z,33.50
2019-02-02T03:09:33.549Z,35.40
2019-02-02T03:12:01.163Z,37.07
2019-02-02T03:14:28.873Z,31.77
2019-02-02T03:16:56.629Z,30.50
2019-02-02T03:19:24.204Z,37.50
2019-02-02T03:21:51.817Z,36.47
2019-02-02T03:24:19.406Z,33.17
2019-02-02T03:26:47.000Z,32.77
2019-02-02T03:29:14.615Z,30.13
2019-02-02T03:31:42.227Z,33.53
2019-02-02T03:34:09.814Z,29.97
2019-02-02T03:36:37.428Z,35.67
2019-02-02T03:39:10.413Z,28.43
2019-02-02T03:41:38.034Z,30.70
2019-02-02T03:44:05.738Z,30.13
2019-02-02T03:46:33.316Z,32.43
2019-02-02T03:49:00.984Z,36.20
2019-02-02T03:51:28.747Z,30.77
2019-02-02T03:54:07.961Z,31.77
2019-02-02T03:56:25.775Z,27.33
2019-02-02T03:59:05.675Z,29.63
2019-02-02T04:01:22.922Z,31.20
2019-02-02T04:03:50.689Z,31.90
2019-02-02T04:06:18.291Z,34.53
2019-02-02T04:08:45.871Z,35.93
2019-02-02T04:11:13.485Z,29.23
2019-02-02T04:13:41.092Z,31.00
2019-02-02T04:16:08.698Z,31.57
2019-02-02T04:18:36.295Z,34.67
2019-02-02T04:21:04.144Z,33.93
2019-02-02T04:23:31.839Z,36.67
2019-02-02T04:25:59.683Z,36.37
2019-02-02T04:28:27.492Z,39.00
2019-02-02T04:30:55.075Z,41.13
2019-02-02T04:33:23.152Z,40.23
2019-02-02T04:35:50.836Z,41.53
2019-02-02T04:38:18.427Z,38.50
2019-02-02T04:40:46.039Z,41.70
2019-02-02T04:43:13.887Z,40.43
2019-02-02T04:45:41.498Z,37.00
2019-02-02T04:48:09.135Z,37.23
2019-02-02T04:50:36.740Z,40.07
2019-02-02T04:53:04.316Z,35.90
2019-02-02T04:55:31.960Z,33.40
2019-02-02T04:57:59.587Z,35.07
2019-02-02T05:00:27.201Z,35.90
2019-02-02T05:02:54.799Z,34.77
2019-02-02T05:05:22.484Z,33.87
2019-02-02T05:07:50.135Z,31.97
2019-02-02T05:10:19.148Z,35.47
2019-02-02T05:12:46.841Z,33.57
2019-02-02T05:15:14.443Z,30.63
2019-02-02T05:17:42.795Z,30.97
2019-02-02T05:20:11.479Z,27.93
2019-02-02T05:22:39.512Z,31.03
2019-02-02T05:25:07.716Z,32.13
2019-02-02T05:27:35.332Z,31.37
2019-02-02T05:30:06.184Z,28.33
2019-02-02T05:32:33.776Z,30.57
2019-02-02T05:35:01.477Z,32.57
2019-02-02T05:37:29.192Z,30.80
2019-02-02T05:39:56.800Z,31.13
2019-02-02T05:42:24.376Z,32.40
2019-02-02T05:44:51.988Z,32.73
2019-02-02T05:47:19.875Z,32.00
2019-02-02T05:49:49.605Z,33.13
2019-02-02T05:52:17.131Z,36.67
2019-02-02T05:54:47.088Z,35.37
2019-02-02T05:57:14.684Z,35.43
2019-02-02T05:59:52.274Z,30.67
2019-02-02T06:02:11.893Z,32.93
2019-02-02T06:04:39.769Z,35.00
2019-02-02T06:07:07.372Z,35.07
2019-02-02T06:09:35.023Z,38.10
2019-02-02T06:12:02.757Z,33.97
2019-02-02T06:14:30.379Z,35.77
2019-02-02T06:16:58.025Z,36.03
2019-02-02T06:19:25.686Z,35.73
2019-02-02T06:21:53.294Z,36.60
2019-02-02T06:24:20.904Z,37.40
2019-02-02T06:26:48.537Z,34.37
2019-02-02T06:29:16.152Z,34.83
2019-02-02T06:31:45.982Z,35.53
2019-02-02T06:34:13.594Z,37.73
2019-02-02T06:36:41.202Z,39.07
2019-02-02T06:39:08.882Z,37.87
2019-02-02T06:41:36.619Z,41.67
2019-02-02T06:44:04.644Z,43.93
2019-02-02T06:46:43.021Z,47.77
2019-02-02T06:49:02.620Z,45.83
2019-02-02T06:51:30.279Z,46.40
2019-02-02T06:53:57.902Z,46.77
2019-02-02T06:56:25.509Z,44.83
2019-02-02T06:58:53.380Z,48.17
2019-02-02T07:01:20.988Z,48.03
2019-02-02T07:03:49.958Z,47.47
2019-02-02T07:06:17.545Z,44.03
2019-02-02T07:08:45.182Z,41.67
2019-02-02T07:11:13.068Z,44.60
2019-02-02T07:13:40.589Z,45.90
2019-02-02T07:16:08.239Z,47.50
2019-02-02T07:18:35.916Z,47.93
2019-02-02T07:21:03.677Z,55.33
2019-02-02T07:23:31.316Z,59.43
2019-02-02T07:25:58.931Z,49.40
2019-02-02T07:28:26.528Z,46.27
2019-02-02T07:30:54.167Z,48.10
2019-02-02T07:33:22.348Z,48.33
2019-02-02T07:35:49.968Z,49.20
2019-02-02T07:38:17.579Z,55.70
2019-02-02T07:40:45.214Z,62.03
2019-02-02T07:43:13.476Z,59.03
2019-02-02T07:45:41.149Z,65.93
2019-02-02T07:48:08.736Z,67.70
2019-02-02T07:50:36.395Z,67.03
2019-02-02T07:53:04.195Z,74.10
2019-02-02T07:55:31.901Z,74.17
2019-02-02T07:57:59.622Z,69.77
2019-02-02T08:00:39.762Z,68.77
2019-02-02T08:02:58.759Z,67.27
2019-02-02T08:05:26.364Z,64.93
2019-02-02T08:07:53.972Z,76.67
2019-02-02T08:10:21.746Z,68.73
2019-02-02T08:12:49.320Z,68.90
2019-02-02T08:15:19.504Z,67.43
2019-02-02T08:17:47.208Z,65.47
2019-02-02T08:20:14.787Z,62.73
2019-02-02T08:22:42.366Z,60.60
2019-02-02T08:25:10.916Z,58.70
2019-02-02T08:27:38.680Z,56.73
2019-02-02T08:30:12.148Z,62.47
2019-02-02T08:32:39.856Z,64.13
2019-02-02T08:35:07.620Z,63.10
2019-02-02T08:37:35.596Z,59.17
2019-02-02T08:40:04.077Z,66.47
2019-02-02T08:42:31.748Z,63.40
2019-02-02T08:44:59.401Z,65.73
2019-02-02T08:47:26.964Z,77.03
2019-02-02T08:49:55.026Z,74.60
2019-02-02T08:52:22.622Z,77.03
2019-02-02T08:54:50.264Z,83.10
2019-02-02T08:57:19.165Z,84.80
2019-02-02T08:59:46.734Z,74.37
2019-02-02T09:02:14.323Z,79.67
2019-02-02T09:04:41.969Z,75.47
2019-02-02T09:07:09.585Z,88.27
2019-02-02T09:09:37.245Z,80.67
2019-02-02T09:12:04.973Z,83.27
2019-02-02T09:14:32.564Z,80.17
2019-02-02T09:17:00.529Z,77.93
2019-02-02T09:19:28.464Z,77.43
2019-02-02T09:21:56.044Z,67.67
2019-02-02T09:24:23.660Z,61.43
2019-02-02T09:26:51.292Z,68.20
2019-02-02T09:29:18.872Z,64.80
2019-02-02T09:31:46.669Z,57.23
2019-02-02T09:34:14.250Z,63.00
2019-02-02T09:36:46.042Z,68.60
2019-02-02T09:39:13.628Z,74.70
2019-02-02T09:41:41.289Z,68.27
2019-02-02T09:44:09.024Z,68.80
2019-02-02T09:46:36.792Z,63.77
2019-02-02T09:49:04.809Z,60.23
2019-02-02T09:51:32.516Z,60.50
2019-02-02T09:54:00.084Z,54.00
2019-02-02T09:56:27.660Z,52.73
2019-02-02T09:58:55.267Z,50.13
2019-02-02T10:01:27.872Z,59.70
2019-02-02T10:03:52.552Z,46.70
2019-02-02T10:06:20.147Z,32.80
2019-02-02T10:08:48.063Z,37.27
2019-02-02T10:11:15.671Z,38.30
2019-02-02T10:13:43.304Z,31.07
2019-02-02T10:16:10.940Z,29.27
2019-02-02T10:18:38.827Z,37.97
2019-02-02T10:21:06.424Z,36.53
2019-02-02T10:23:34.097Z,41.33
2019-02-02T10:26:03.277Z,45.60
2019-02-02T10:28:30.944Z,38.77
2019-02-02T10:30:58.988Z,44.23
2019-02-02T10:33:26.676Z,38.27
2019-02-02T10:35:54.261Z,43.10
2019-02-02T10:38:22.057Z,33.20
2019-02-02T10:40:50.007Z,36.33
2019-02-02T10:43:18.380Z,29.07
2019-02-02T10:45:45.992Z,38.33
2019-02-02T10:48:14.376Z,28.93
2019-02-02T10:50:42.011Z,19.77
2019-02-02T10:53:09.681Z,18.77
2019-02-02T10:55:37.302Z,16.17
2019-02-02T10:58:07.168Z,13.20
2019-02-02T11:00:36.656Z,13.47
2019-02-02T11:03:04.612Z,9.83
2019-02-02T11:05:32.375Z,10.23
2019-02-02T11:08:00.459Z,10.03
2019-02-02T11:10:29.452Z,12.73
2019-02-02T11:12:57.187Z,13.37
2019-02-02T11:15:25.076Z,13.10
2019-02-02T11:17:52.994Z,16.73
2019-02-02T11:20:22.888Z,17.17
2019-02-02T11:22:50.417Z,25.67
2019-02-02T11:25:18.491Z,20.03
2019-02-02T11:27:46.207Z,23.47
2019-02-02T11:30:15.339Z,26.87
2019-02-02T11:32:45.332Z,25.23
2019-02-02T11:35:13.677Z,27.00
2019-02-02T11:37:41.613Z,31.30
2019-02-02T11:40:14.848Z,31.30
2019-02-02T11:42:42.696Z,29.17
2019-02-02T11:45:10.731Z,29.10
2019-02-02T11:47:38.441Z,28.40
2019-02-02T11:50:07.368Z,30.13
2019-02-02T11:52:35.156Z,28.53
2019-02-02T11:55:03.275Z,27.43
2019-02-02T11:57:31.271Z,27.07
2019-02-02T12:00:00.227Z,27.53
2019-02-02T12:02:28.126Z,24.13
2019-02-02T12:04:55.806Z,22.97
2019-02-02T12:07:23.407Z,23.27
2019-02-02T12:09:51.267Z,24.03
2019-02-02T12:12:18.859Z,24.80
2019-02-02T12:14:46.441Z,22.13
2019-02-02T12:17:15.236Z,23.43
2019-02-02T12:19:42.872Z,22.23
2019-02-02T12:22:10.531Z,22.00
2019-02-02T12:24:38.254Z,22.40
2019-02-02T12:27:05.895Z,22.00
2019-02-02T12:29:33.513Z,22.70
2019-02-02T12:32:01.430Z,20.37
2019-02-02T12:34:29.053Z,20.20
2019-02-02T12:36:56.627Z,21.10
2019-02-02T12:39:25.331Z,23.50
2019-02-02T12:41:52.956Z,27.03
2019-02-02T12:44:21.511Z,23.30
2019-02-02T12:46:49.135Z,22.43
2019-02-02T12:49:17.901Z,19.30
2019-02-02T12:51:45.782Z,19.27
2019-02-02T12:54:13.384Z,16.30
2019-02-02T12:56:41.036Z,13.80
2019-02-02T12:59:08.616Z,17.30
2019-02-02T13:01:36.449Z,14.47
2019-02-02T13:04:05.505Z,11.30
2019-02-02T13:06:35.800Z,11.20
2019-02-02T13:09:06.586Z,12.13
2019-02-02T13:11:34.369Z,11.23
2019-02-02T13:14:03.516Z,11.13
2019-02-02T13:16:31.112Z,10.47
2019-02-02T13:18:58.873Z,11.00
2019-02-02T13:21:26.483Z,12.63
2019-02-02T13:23:54.084Z,11.50
2019-02-02T13:26:21.687Z,12.13
2019-02-02T13:28:49.383Z,11.40
2019-02-02T13:31:21.021Z,13.70
2019-02-02T13:33:46.724Z,15.33
2019-02-02T13:36:14.405Z,14.07
2019-02-02T13:38:45.144Z,13.20
2019-02-02T13:41:17.394Z,13.40
2019-02-02T13:43:45.941Z,31.87
2019-02-02T13:46:13.537Z,14.57
2019-02-02T13:48:42.547Z,378.60
2019-02-02T13:51:10.152Z,138.60
2019-02-02T13:53:37.762Z,14.10
2019-02-02T13:56:05.368Z,14.97
2019-02-02T13:58:33.260Z,15.87
2019-02-02T14:01:00.892Z,14.77
2019-02-02T14:03:28.483Z,13.47
2019-02-02T14:05:56.140Z,12.90
2019-02-02T14:08:23.714Z,13.25
2019-02-02T14:10:51.287Z,13.90
2019-02-02T14:13:18.900Z,13.62
2019-02-02T14:15:46.478Z,13.88
2019-02-02T14:18:14.061Z,14.07
2019-02-02T14:20:41.752Z,14.58
2019-02-02T14:23:09.338Z,14.87
2019-02-02T14:25:36.974Z,14.98
2019-02-02T14:28:04.620Z,13.80
2019-02-02T14:30:32.373Z,13.60
2019-02-02T14:32:59.953Z,13.88
2019-02-02T14:35:29.607Z,12.90
2019-02-02T14:37:57.093Z,11.97
2019-02-02T14:40:24.771Z,12.05
2019-02-02T14:42:52.437Z,12.80
2019-02-02T14:45:20.880Z,13.47
2019-02-02T14:47:48.598Z,13.23
2019-02-02T14:50:19.147Z,14.17
2019-02-02T14:52:46.888Z,13.57
2019-02-02T14:55:17.234Z,14.53
2019-02-02T14:57:50.923Z,14.07
2019-02-02T15:00:26.212Z,14.20
2019-02-02T15:02:53.926Z,14.30
2019-02-02T15:05:21.853Z,13.90
2019-02-02T15:07:49.836Z,14.40
2019-02-02T15:10:18.556Z,13.77
2019-02-02T15:12:46.296Z,13.47
2019-02-02T15:15:14.338Z,13.50
2019-02-02T15:17:44.619Z,13.27
2019-02-02T15:20:39.125Z,13.27
2019-02-02T15:23:08.396Z,13.90
2019-02-02T15:25:36.087Z,14.50
2019-02-02T15:28:04.290Z,15.00
2019-02-02T15:30:32.108Z,16.83
2019-02-02T15:32:59.863Z,17.23
2019-02-02T15:35:27.557Z,19.83
2019-02-02T15:37:55.125Z,24.43
2019-02-02T15:40:22.762Z,21.77
2019-02-02T15:42:50.345Z,22.43
2019-02-02T15:45:22.329Z,24.33
2019-02-02T15:47:50.060Z,24.73
2019-02-02T15:50:17.668Z,25.67
2019-02-02T15:52:45.379Z,27.73
2019-02-02T15:55:15.189Z,29.00
2019-02-02T15:57:42.942Z,29.60
2019-02-02T16:00:14.380Z,26.90
2019-02-02T16:02:42.096Z,28.43
2019-02-02T16:05:11.322Z,26.90
2019-02-02T16:07:38.956Z,28.17
2019-02-02T16:10:08.996Z,27.23
2019-02-02T16:12:36.664Z,27.47
2019-02-02T16:15:05.541Z,30.00
2019-02-02T16:17:33.231Z,29.30
2019-02-02T16:20:00.779Z,29.87
2019-02-02T16:22:28.435Z,28.90
2019-02-02T16:24:56.031Z,32.13
2019-02-02T16:27:23.746Z,29.93
2019-02-02T16:29:51.315Z,28.40
2019-02-02T16:32:19.967Z,31.00
2019-02-02T16:34:47.580Z,31.93
2019-02-02T16:37:15.216Z,29.80
2019-02-02T16:39:42.859Z,32.27
2019-02-02T16:42:10.464Z,32.57
2019-02-02T16:44:38.203Z,33.07
2019-02-02T16:47:05.920Z,29.67
2019-02-02T16:49:33.632Z,32.43
2019-02-02T16:52:01.394Z,31.67
2019-02-02T16:54:28.917Z,30.57
2019-02-02T16:56:56.528Z,31.13
2019-02-02T16:59:24.154Z,30.10
2019-02-02T17:01:51.814Z,31.60
2019-02-02T17:04:19.460Z,34.67
2019-02-02T17:06:47.095Z,33.83
2019-02-02T17:09:14.878Z,32.63
2019-02-02T17:11:42.578Z,33.63
2019-02-02T17:14:10.323Z,32.57
2019-02-02T17:16:37.982Z,32.83
2019-02-02T17:19:05.922Z,32.30
2019-02-02T17:21:33.620Z,32.57
2019-02-02T17:24:01.357Z,34.13
2019-02-02T17:26:28.966Z,32.53
2019-02-02T17:28:56.575Z,34.60
2019-02-02T17:31:24.395Z,35.03
2019-02-02T17:33:52.023Z,31.90
2019-02-02T17:36:19.754Z,33.63
2019-02-02T17:38:47.459Z,38.37
2019-02-02T17:41:15.164Z,36.37
2019-02-02T17:43:42.935Z,40.30
2019-02-02T17:46:10.726Z,36.63
2019-02-02T17:48:38.766Z,39.40
2019-02-02T17:51:06.526Z,39.20
2019-02-02T17:53:34.267Z,38.43
2019-02-02T17:56:02.296Z,39.70
2019-02-02T17:59:20.139Z,38.67
2019-02-02T18:02:00.128Z,37.93
2019-02-02T18:04:43.137Z,39.90
2019-02-02T18:07:22.451Z,41.97
2019-02-02T18:10:02.874Z,35.80
2019-02-02T18:12:42.479Z,38.77
2019-02-02T18:15:22.676Z,35.33
2019-02-02T18:20:44.781Z,39.60
2019-02-02T18:23:25.075Z,35.77
2019-02-02T18:26:05.446Z,39.10
2019-02-02T18:28:46.595Z,38.57
2019-02-02T18:31:26.820Z,38.57
2019-02-02T18:34:09.905Z,39.00
2019-02-02T18:36:37.828Z,39.00
2019-02-02T18:39:24.906Z,40.93
2019-02-02T18:42:12.081Z,38.87
2019-02-02T18:44:51.841Z,37.17
2019-02-02T18:47:32.123Z,38.80
2019-02-02T18:50:12.159Z,41.07
2019-02-02T18:52:52.179Z,38.23
2019-02-02T18:55:32.746Z,42.83
2019-02-02T18:58:14.254Z,43.00
2019-02-02T19:00:55.348Z,40.80
2019-02-02T19:03:36.280Z,44.30
2019-02-02T19:06:17.022Z,44.23
2019-02-02T19:08:57.366Z,47.43
2019-02-02T19:11:37.715Z,43.20
2019-02-02T19:14:18.718Z,41.63
2019-02-02T19:17:01.081Z,46.00
2019-02-02T19:19:40.547Z,42.80
2019-02-02T19:22:08.647Z,46.83
2019-02-02T19:24:55.626Z,44.33
2019-02-02T19:27:35.918Z,44.30
2019-02-02T19:30:15.804Z,46.17
2019-02-02T19:32:55.971Z,48.17
2019-02-02T19:35:36.014Z,47.07
2019-02-02T19:38:16.235Z,46.53
2019-02-02T19:40:56.383Z,48.93
2019-02-02T19:46:36.051Z,49.80
2019-02-02T19:49:15.912Z,48.00
2019-02-02T19:51:56.802Z,49.87
2019-02-02T19:54:37.554Z,48.77
2019-02-02T19:57:18.179Z,47.80
2019-02-02T19:59:58.213Z,47.90
2019-02-02T20:02:38.291Z,53.23
2019-02-02T20:05:27.996Z,49.43
2019-02-02T20:08:00.634Z,50.03
2019-02-02T20:10:40.689Z,50.63
2019-02-02T20:13:20.802Z,49.53
2019-02-02T20:16:03.925Z,46.23
2019-02-02T20:18:43.008Z,47.93
2019-02-02T20:21:23.000Z,48.67
2019-02-02T20:24:03.208Z,50.63
2019-02-02T20:26:43.349Z,49.77
2019-02-02T20:29:24.938Z,46.60
2019-02-02T20:32:04.592Z,47.97
2019-02-02T20:34:45.159Z,50.90
2019-02-02T20:37:24.757Z,49.07
2019-02-02T20:40:04.973Z,47.33
2019-02-02T20:42:45.004Z,49.60
2019-02-02T20:45:25.081Z,45.90
2019-02-02T20:48:05.181Z,43.80
2019-02-02T20:50:45.296Z,45.27
2019-02-02T20:53:25.756Z,41.37
2019-02-02T20:56:05.545Z,43.70
2019-02-02T20:58:45.761Z,49.40
2019-02-02T21:01:25.850Z,46.70
2019-02-02T21:04:05.953Z,50.40
2019-02-02T21:06:46.308Z,51.53
2019-02-02T21:09:26.429Z,48.53
2019-02-02T21:12:06.712Z,48.73
2019-02-02T21:14:46.893Z,50.30
2019-02-02T21:17:27.344Z,50.47
2019-02-02T21:20:07.554Z,47.33
2019-02-02T21:22:47.716Z,49.90
2019-02-02T21:25:27.761Z,44.87
2019-02-02T21:28:08.061Z,43.00
2019-02-02T21:30:47.952Z,45.27
2019-02-02T21:33:27.971Z,49.73
2019-02-02T21:36:08.133Z,47.70
2019-02-02T21:38:48.496Z,49.30
2019-02-02T21:41:29.508Z,48.57
2019-02-02T21:44:09.724Z,49.03
2019-02-02T21:46:49.638Z,50.10
2019-02-02T21:49:29.804Z,47.33
2019-02-02T21:52:09.908Z,52.70
2019-02-02T21:54:49.891Z,55.10
2019-02-02T21:57:30.064Z,48.70
2019-02-02T22:00:10.344Z,50.63
2019-02-02T22:02:50.574Z,54.10
2019-02-02T22:05:30.695Z,57.60
2019-02-02T22:08:10.903Z,53.63
2019-02-02T22:10:38.848Z,53.13
2019-02-02T22:13:25.898Z,49.80
2019-02-02T22:16:12.902Z,53.47
2019-02-02T22:18:53.281Z,61.20
2019-02-02T22:21:33.502Z,67.00
2019-02-02T22:24:13.760Z,76.03
2019-02-02T22:26:53.568Z,72.67
2019-02-02T22:29:34.000Z,76.93
2019-02-02T22:32:14.129Z,75.83
2019-02-02T22:34:54.313Z,76.83
2019-02-02T22:37:34.503Z,78.40
2019-02-02T22:40:14.545Z,77.97
2019-02-02T22:42:54.992Z,73.13
2019-02-02T22:45:35.172Z,76.67
2019-02-02T22:48:15.520Z,71.73
2019-02-02T22:50:55.620Z,73.33
2019-02-02T22:53:35.794Z,70.40
2019-02-02T22:56:16.072Z,72.77
2019-02-02T22:58:43.740Z,70.50
2019-02-02T23:01:50.182Z,67.50
2019-02-02T23:04:30.632Z,75.83
2019-02-02T23:07:10.807Z,78.07
2019-02-02T23:09:50.866Z,79.43
2019-02-02T23:12:31.340Z,75.57
2019-02-02T23:15:11.480Z,88.07
2019-02-02T23:17:51.410Z,85.87
2019-02-02T23:20:31.531Z,85.43
2019-02-02T23:23:12.032Z,84.40
2019-02-02T23:25:40.128Z,86.93
2019-02-02T23:28:27.150Z,79.53
2019-02-02T23:31:07.596Z,80.23
2019-02-02T23:33:47.680Z,77.00
2019-02-02T23:36:28.100Z,71.13
2019-02-02T23:39:08.506Z,70.70
2019-02-02T23:41:48.528Z,63.87
2019-02-02T23:44:28.710Z,71.03
2019-02-02T23:47:08.828Z,74.60
2019-02-02T23:49:48.972Z,77.23
2019-02-02T23:52:29.188Z,70.40
2019-02-02T23:55:09.487Z,68.27
2019-02-02T23:57:49.417Z,68.50
